Time;durP1;ratioP1;P1;durP2;ratioP2;P2;SDS_P1;SDS_P2;PMS_P1;PMS_P2;Temp;Humidity;BMP_temperature;BMP_pressure;BME280_temperature;BME280_humidity;BME280_pressure;Samples;Min_cycle;Max_cycle;Signal;HPM_P1;HPM_P2
2023/08/10 00:01:26;;;;;;;6.65;2.50;;;;;;;;;;5050967;28;20026;-74
2023/08/10 00:03:52;;;;;;;9.90;2.17;;;;;;;;;;5023116;28;20055;-73
2023/08/10 00:06:18;;;;;;;7.63;2.10;;;;;;;;;;5051118;28;20045;-74
2023/08/10 00:08:44;;;;;;;7.45;2.00;;;;;;;;;;5029954;28;20030;-73
2023/08/10 00:11:10;;;;;;;7.57;1.90;;;;;;;;;;5033700;28;20030;-73
2023/08/10 00:13:36;;;;;;;6.78;2.17;;;;;;;;;;5024483;28;20044;-74
2023/08/10 00:16:05;;;;;;;8.60;2.13;;;;;;;;;;5023589;28;20043;-73
2023/08/10 00:18:31;;;;;;;8.18;2.17;;;;;;;;;;5033769;28;20053;-73
2023/08/10 00:20:57;;;;;;;3.17;1.77;;;;;;;;;;5033555;28;20053;-73
2023/08/10 00:23:23;;;;;;;2.83;1.57;;;;;;;;;;5051254;28;20037;-73
2023/08/10 00:25:51;;;;;;;4.60;1.90;;;;;;;;;;5024718;28;20021;-74
2023/08/10 00:28:17;;;;;;;6.95;2.47;;;;;;;;;;5050467;28;20017;-74
2023/08/10 00:30:43;;;;;;;4.03;1.67;;;;;;;;;;5033246;28;20044;-73
2023/08/10 00:33:11;;;;;;;4.95;2.13;;;;;;;;;;5033607;28;20028;-73
2023/08/10 00:35:40;;;;;;;8.13;2.13;;;;;;;;;;5033531;28;20037;-73
2023/08/10 00:38:06;;;;;;;4.75;1.88;;;;;;;;;;5050770;28;20033;-73
2023/08/10 00:40:32;;;;;;;4.40;1.83;;;;;;;;;;5028174;28;20033;-73
2023/08/10 00:43:00;;;;;;;9.23;2.00;;;;;;;;;;5023429;28;20037;-73
2023/08/10 00:45:29;;;;;;;2.92;1.50;;;;;;;;;;5051387;28;20006;-73
2023/08/10 00:47:56;;;;;;;5.28;2.08;;;;;;;;;;5050656;28;20025;-74
2023/08/10 00:50:22;;;;;;;3.60;1.73;;;;;;;;;;5033457;28;20032;-73
2023/08/10 00:52:49;;;;;;;4.82;1.65;;;;;;;;;;5050960;28;20030;-74
2023/08/10 00:55:17;;;;;;;6.80;2.00;;;;;;;;;;5032759;28;20014;-73
2023/08/10 00:57:43;;;;;;;4.85;1.67;;;;;;;;;;5033863;28;20026;-74
2023/08/10 01:00:12;;;;;;;6.13;1.52;;;;;;;;;;5023292;28;20284;-73
2023/08/10 01:02:39;;;;;;;10.20;1.98;;;;;;;;;;5023612;28;20030;-73
2023/08/10 01:05:06;;;;;;;6.80;2.38;;;;;;;;;;5033258;28;20030;-73
2023/08/10 01:07:47;;;;;;;6.35;1.70;;;;;;;;;;5050664;28;20040;-74
2023/08/10 01:10:12;;;;;;;3.50;1.50;;;;;;;;;;5032846;28;20026;-74
2023/08/10 01:12:45;;;;;;;6.22;1.90;;;;;;;;;;5032213;28;20037;-73
2023/08/10 01:15:17;;;;;;;6.78;1.85;;;;;;;;;;5022959;28;20032;-73
2023/08/10 01:17:51;;;;;;;7.43;2.13;;;;;;;;;;5054461;28;20089;-73
2023/08/10 01:20:19;;;;;;;4.10;1.77;;;;;;;;;;5037799;28;20057;-73
2023/08/10 01:22:54;;;;;;;5.70;1.65;;;;;;;;;;5026383;28;20032;-74
2023/08/10 01:25:22;;;;;;;8.77;1.95;;;;;;;;;;5032329;28;20037;-74
2023/08/10 01:27:49;;;;;;;8.07;2.17;;;;;;;;;;5037261;28;20013;-73
2023/08/10 01:30:18;;;;;;;5.85;1.40;;;;;;;;;;5054822;28;20022;-74
2023/08/10 01:32:44;;;;;;;9.27;2.00;;;;;;;;;;5036287;28;20275;-73
2023/08/10 01:35:12;;;;;;;13.45;2.17;;;;;;;;;;5026834;28;20022;-74
2023/08/10 01:37:38;;;;;;;6.75;1.83;;;;;;;;;;5031784;28;20033;-73
2023/08/10 01:40:08;;;;;;;6.13;1.90;;;;;;;;;;5036297;28;20448;-73
2023/08/10 01:42:34;;;;;;;3.97;1.87;;;;;;;;;;5031995;28;20028;-73
2023/08/10 01:45:02;;;;;;;5.95;1.42;;;;;;;;;;5053318;28;20025;-73
2023/08/10 01:47:33;;;;;;;4.93;1.70;;;;;;;;;;5054605;28;20434;-73
2023/08/10 01:50:03;;;;;;;6.82;2.05;;;;;;;;;;5027348;28;20197;-73
2023/08/10 01:52:31;;;;;;;8.82;1.55;;;;;;;;;;5026564;28;20022;-73
2023/08/10 01:54:58;;;;;;;3.20;1.52;;;;;;;;;;5053850;28;20025;-73
2023/08/10 01:57:25;;;;;;;7.63;1.85;;;;;;;;;;5054045;28;20014;-74
2023/08/10 01:59:51;;;;;;;8.63;2.00;;;;;;;;;;5035743;28;20156;-73
2023/08/10 02:02:17;;;;;;;5.63;1.65;;;;;;;;;;5024544;28;20045;-74
2023/08/10 02:04:43;;;;;;;4.03;2.15;;;;;;;;;;5052705;28;20107;-74
2023/08/10 02:07:14;;;;;;;5.25;1.95;;;;;;;;;;5031607;28;20085;-74
2023/08/10 02:09:40;;;;;;;9.00;2.13;;;;;;;;;;5027499;28;20033;-73
2023/08/10 02:12:11;;;;;;;5.75;2.40;;;;;;;;;;5053087;28;20124;-74
2023/08/10 02:14:37;;;;;;;7.38;2.38;;;;;;;;;;5024167;28;20048;-73
2023/08/10 02:17:06;;;;;;;6.28;1.75;;;;;;;;;;5036015;28;20025;-73
2023/08/10 02:19:34;;;;;;;10.05;1.90;;;;;;;;;;5035534;28;20029;-73
2023/08/10 02:22:00;;;;;;;7.20;2.17;;;;;;;;;;5052957;28;20037;-73
2023/08/10 02:24:26;;;;;;;2.88;1.40;;;;;;;;;;5035630;28;20029;-73
2023/08/10 02:26:52;;;;;;;7.07;2.25;;;;;;;;;;5025417;28;20028;-74
2023/08/10 02:29:18;;;;;;;4.95;1.83;;;;;;;;;;5034367;28;20018;-74
2023/08/10 02:31:44;;;;;;;6.78;1.92;;;;;;;;;;5053048;28;20029;-73
2023/08/10 02:34:13;;;;;;;6.43;2.00;;;;;;;;;;5052973;28;20072;-73
2023/08/10 02:36:39;;;;;;;5.60;2.05;;;;;;;;;;5035621;28;20033;-73
2023/08/10 02:39:05;;;;;;;7.80;1.90;;;;;;;;;;5025768;28;20062;-73
2023/08/10 02:41:32;;;;;;;4.53;1.70;;;;;;;;;;5035514;28;20048;-73
2023/08/10 02:43:58;;;;;;;5.87;2.00;;;;;;;;;;5126172;23;20056;-74
2023/08/10 02:46:29;;;;;;;4.37;2.87;;;;;;;;;;5005387;28;20015;-73
2023/08/10 02:48:55;;;;;;;6.27;1.67;;;;;;;;;;5004107;28;20027;-73
2023/08/10 02:51:23;;;;;;;5.77;1.77;;;;;;;;;;5004271;28;20038;-73
2023/08/10 02:53:52;;;;;;;8.03;1.97;;;;;;;;;;5007361;28;20082;-73
2023/08/10 02:56:20;;;;;;;6.90;2.23;;;;;;;;;;4994084;28;20050;-73
2023/08/10 02:58:49;;;;;;;5.70;2.07;;;;;;;;;;5004874;28;20054;-73
2023/08/10 03:01:16;;;;;;;4.73;2.20;;;;;;;;;;5004833;28;20134;-73
2023/08/10 03:03:45;;;;;;;3.80;1.70;;;;;;;;;;5005646;28;20034;-73
2023/08/10 03:06:18;;;;;;;3.63;1.90;;;;;;;;;;5004806;28;20106;-75
2023/08/10 03:08:44;;;;;;;7.90;2.40;;;;;;;;;;5005690;28;20018;-73
2023/08/10 03:11:11;;;;;;;2.37;1.50;;;;;;;;;;5006393;28;20062;-74
2023/08/10 03:13:37;;;;;;;8.37;1.97;;;;;;;;;;5006603;28;20037;-73
2023/08/10 03:16:03;;;;;;;8.83;1.97;;;;;;;;;;5006760;28;20280;-73
2023/08/10 03:18:29;;;;;;;8.37;2.33;;;;;;;;;;4993734;28;20100;-73
2023/08/10 03:20:55;;;;;;;5.67;1.83;;;;;;;;;;4993980;28;20039;-73
2023/08/10 03:23:21;;;;;;;7.57;1.93;;;;;;;;;;4993151;28;20069;-73
2023/08/10 03:25:47;;;;;;;5.97;2.30;;;;;;;;;;5006755;28;20042;-73
2023/08/10 03:28:18;;;;;;;5.03;1.40;;;;;;;;;;5005851;28;20023;-73
2023/08/10 03:30:46;;;;;;;7.80;1.90;;;;;;;;;;5007163;28;20278;-73
2023/08/10 03:33:12;;;;;;;10.20;2.00;;;;;;;;;;4993344;28;20038;-74
2023/08/10 03:35:38;;;;;;;6.73;1.90;;;;;;;;;;4994357;28;20054;-73
2023/08/10 03:38:04;;;;;;;5.73;1.67;;;;;;;;;;5005683;28;20050;-73
2023/08/10 03:40:30;;;;;;;10.97;1.90;;;;;;;;;;4993785;28;20042;-73
2023/08/10 03:42:56;;;;;;;7.17;1.73;;;;;;;;;;5002898;28;20029;-73
2023/08/10 03:45:22;;;;;;;7.03;2.73;;;;;;;;;;5006022;28;20274;-73
2023/08/10 03:47:51;;;;;;;5.93;1.70;;;;;;;;;;5008856;28;20011;-73
2023/08/10 03:50:17;;;;;;;6.30;2.00;;;;;;;;;;5005172;28;20029;-73
2023/08/10 03:52:43;;;;;;;7.00;1.73;;;;;;;;;;5005172;28;20061;-74
2023/08/10 03:55:09;;;;;;;10.37;1.90;;;;;;;;;;5006111;28;20037;-74
2023/08/10 03:57:35;;;;;;;5.80;1.90;;;;;;;;;;5006423;28;20183;-73
2023/08/10 04:00:01;;;;;;;4.33;2.00;;;;;;;;;;5006330;28;20334;-74
2023/08/10 04:02:28;;;;;;;4.23;1.70;;;;;;;;;;5004944;28;20089;-73
2023/08/10 04:04:54;;;;;;;2.37;1.50;;;;;;;;;;4993481;28;20033;-74
2023/08/10 04:07:20;;;;;;;3.37;1.50;;;;;;;;;;5003668;28;20275;-73
2023/08/10 04:09:47;;;;;;;3.93;2.20;;;;;;;;;;4994437;28;20049;-73
2023/08/10 04:12:19;;;;;;;4.23;1.60;;;;;;;;;;5007686;28;20022;-74
2023/08/10 04:14:45;;;;;;;6.25;1.67;;;;;;;;;;5004993;28;20034;-73
2023/08/10 04:17:11;;;;;;;5.63;2.00;;;;;;;;;;4993955;28;20054;-73
2023/08/10 04:19:37;;;;;;;11.20;2.43;;;;;;;;;;5005556;28;20189;-74
2023/08/10 04:22:03;;;;;;;3.77;1.97;;;;;;;;;;4993528;28;20014;-73
2023/08/10 04:24:31;;;;;;;5.77;1.90;;;;;;;;;;5006127;28;20029;-73
2023/08/10 04:26:57;;;;;;;5.23;2.53;;;;;;;;;;4993721;28;20030;-74
2023/08/10 04:29:27;;;;;;;7.97;2.17;;;;;;;;;;5004690;28;20030;-73
2023/08/10 04:31:53;;;;;;;9.70;2.37;;;;;;;;;;5007178;28;20018;-74
2023/08/10 04:34:19;;;;;;;7.03;2.00;;;;;;;;;;5006185;28;20025;-73
2023/08/10 04:36:48;;;;;;;7.23;2.30;;;;;;;;;;5005866;28;20038;-73
2023/08/10 04:39:14;;;;;;;5.90;1.90;;;;;;;;;;5003453;28;20046;-73
2023/08/10 04:41:40;;;;;;;10.77;2.23;;;;;;;;;;4993442;28;20018;-73
2023/08/10 04:44:06;;;;;;;6.17;1.73;;;;;;;;;;5002500;28;20535;-74
2023/08/10 04:46:32;;;;;;;10.83;2.10;;;;;;;;;;5006426;28;20045;-74
2023/08/10 04:48:58;;;;;;;7.07;2.63;;;;;;;;;;5003751;28;20327;-73
2023/08/10 04:51:24;;;;;;;6.70;2.90;;;;;;;;;;5006411;28;20030;-75
2023/08/10 04:53:50;;;;;;;4.33;2.40;;;;;;;;;;5010887;28;20018;-73
2023/08/10 04:56:18;;;;;;;5.73;2.20;;;;;;;;;;4996986;28;20019;-73
2023/08/10 04:58:46;;;;;;;5.23;2.30;;;;;;;;;;5008846;28;20023;-74
2023/08/10 05:01:14;;;;;;;3.20;1.90;;;;;;;;;;5009246;28;20018;-73
2023/08/10 05:03:40;;;;;;;5.83;2.93;;;;;;;;;;5011487;28;20046;-73
2023/08/10 05:06:06;;;;;;;4.10;2.20;;;;;;;;;;5007370;28;20031;-74
2023/08/10 05:08:32;;;;;;;5.37;2.50;;;;;;;;;;5007665;28;20053;-74
2023/08/10 05:10:59;;;;;;;9.23;2.77;;;;;;;;;;5008862;28;20031;-74
2023/08/10 05:13:25;;;;;;;5.17;2.53;;;;;;;;;;5009005;28;20022;-73
2023/08/10 05:15:53;;;;;;;8.80;3.00;;;;;;;;;;5008625;28;20060;-76
2023/08/10 05:18:23;;;;;;;4.67;2.13;;;;;;;;;;5006065;28;20083;-73
2023/08/10 05:20:50;;;;;;;7.63;2.60;;;;;;;;;;5008465;28;20093;-74
2023/08/10 05:23:16;;;;;;;9.60;3.13;;;;;;;;;;4996172;28;20022;-73
2023/08/10 05:25:42;;;;;;;7.20;3.13;;;;;;;;;;5007771;28;20022;-73
2023/08/10 05:28:08;;;;;;;5.63;3.03;;;;;;;;;;5007430;28;20034;-74
2023/08/10 05:30:34;;;;;;;6.93;2.93;;;;;;;;;;5006911;28;20010;-74
2023/08/10 05:33:00;;;;;;;10.87;2.63;;;;;;;;;;5008726;28;20087;-74
2023/08/10 05:35:26;;;;;;;6.35;3.13;;;;;;;;;;5090165;22;20036;-74
2023/08/10 05:37:53;;;;;;;7.23;2.90;;;;;;;;;;5074215;28;20005;-74
2023/08/10 05:40:26;;;;;;;6.80;3.27;;;;;;;;;;5074067;28;20037;-74
2023/08/10 05:42:52;;;;;;;6.43;3.17;;;;;;;;;;5073833;28;20025;-74
2023/08/10 05:45:19;;;;;;;5.07;2.70;;;;;;;;;;5063525;28;20017;-74
2023/08/10 05:47:48;;;;;;;7.00;2.60;;;;;;;;;;5071874;28;20028;-73
2023/08/10 05:50:14;;;;;;;6.07;2.90;;;;;;;;;;5073203;28;20021;-74
2023/08/10 05:52:43;;;;;;;7.55;2.80;;;;;;;;;;5072295;28;20119;-74
2023/08/10 05:55:10;;;;;;;4.10;2.38;;;;;;;;;;5068829;28;20041;-74
2023/08/10 05:57:39;;;;;;;8.82;3.97;;;;;;;;;;5061533;28;20029;-74
2023/08/10 06:00:07;;;;;;;5.45;3.05;;;;;;;;;;5073730;28;20044;-75
2023/08/10 06:02:36;;;;;;;6.53;2.95;;;;;;;;;;5061385;28;20021;-74
2023/08/10 06:05:06;;;;;;;5.65;3.00;;;;;;;;;;5072806;28;20021;-74
2023/08/10 06:07:34;;;;;;;11.85;4.35;;;;;;;;;;5068187;28;20021;-74
2023/08/10 06:10:00;;;;;;;6.60;2.47;;;;;;;;;;5072951;28;20033;-74
2023/08/10 06:12:26;;;;;;;15.32;3.15;;;;;;;;;;5072155;28;20064;-73
2023/08/10 06:14:52;;;;;;;12.43;2.67;;;;;;;;;;5060734;28;20025;-74
2023/08/10 06:17:18;;;;;;;6.03;2.67;;;;;;;;;;5072385;28;20036;-74
2023/08/10 06:19:50;;;;;;;10.95;2.58;;;;;;;;;;5071996;28;20096;-74
2023/08/10 06:22:17;;;;;;;6.97;2.40;;;;;;;;;;5071226;28;20243;-74
2023/08/10 06:24:43;;;;;;;4.85;2.30;;;;;;;;;;5067288;28;20056;-73
2023/08/10 06:27:09;;;;;;;10.52;2.90;;;;;;;;;;5072340;28;20065;-74
2023/08/10 06:29:36;;;;;;;4.00;2.13;;;;;;;;;;5072706;28;20092;-73
2023/08/10 06:32:08;;;;;;;7.30;2.92;;;;;;;;;;5061077;28;20060;-73
2023/08/10 06:34:34;;;;;;;;;;;;;;;;;;5061376;28;20037;-74
2023/08/10 06:37:03;;;;;;;5.32;1.73;;;;;;;;;;5060800;28;19929;-73
2023/08/10 06:39:29;;;;;;;6.82;1.95;;;;;;;;;;5071441;28;20088;-74
2023/08/10 06:41:55;;;;;;;6.22;2.05;;;;;;;;;;5072448;28;20044;-73
2023/08/10 06:44:21;;;;;;;6.65;1.98;;;;;;;;;;5061658;28;20025;-74
2023/08/10 06:46:47;;;;;;;8.07;2.65;;;;;;;;;;5072273;28;21081;-74
2023/08/10 06:49:16;;;;;;;3.13;1.40;;;;;;;;;;5072338;28;20024;-74
2023/08/10 06:51:42;;;;;;;6.20;2.45;;;;;;;;;;5071431;28;20036;-73
2023/08/10 06:54:08;;;;;;;10.15;1.90;;;;;;;;;;5070724;28;20085;-74
2023/08/10 06:56:39;;;;;;;7.35;1.77;;;;;;;;;;5071108;28;20024;-75
2023/08/10 06:59:05;;;;;;;5.40;1.88;;;;;;;;;;5070939;28;20113;-74
2023/08/10 07:01:31;;;;;;;5.60;2.03;;;;;;;;;;5071097;28;20029;-74
2023/08/10 07:03:57;;;;;;;5.47;1.80;;;;;;;;;;5067135;28;20048;-74
2023/08/10 07:06:25;;;;;;;6.72;2.35;;;;;;;;;;5070608;28;20194;-73
2023/08/10 07:08:52;;;;;;;7.90;1.60;;;;;;;;;;5071302;28;20212;-74
2023/08/10 07:11:19;;;;;;;8.68;2.90;;;;;;;;;;5071339;28;20088;-74
2023/08/10 07:13:48;;;;;;;7.53;4.50;;;;;;;;;;5070852;28;20035;-73
2023/08/10 07:16:17;;;;;;;5.97;2.45;;;;;;;;;;5070664;28;20013;-74
2023/08/10 07:18:45;;;;;;;5.88;1.85;;;;;;;;;;5066215;28;20031;-73
2023/08/10 07:21:11;;;;;;;5.63;1.85;;;;;;;;;;5059668;28;20036;-74
2023/08/10 07:23:37;;;;;;;8.82;2.97;;;;;;;;;;5086638;28;21069;-73
2023/08/10 07:26:03;;;;;;;7.50;3.10;;;;;;;;;;5060194;28;20109;-74
2023/08/10 07:28:29;;;;;;;3.95;1.77;;;;;;;;;;5070270;28;20025;-74
2023/08/10 07:30:55;;;;;;;10.20;1.58;;;;;;;;;;5060027;28;20013;-73
2023/08/10 07:33:21;;;;;;;3.83;1.45;;;;;;;;;;5061560;28;20013;-74
2023/08/10 07:35:47;;;;;;;5.30;1.40;;;;;;;;;;5070288;28;20036;-74
2023/08/10 07:38:16;;;;;;;3.63;1.27;;;;;;;;;;5071156;28;20020;-73
2023/08/10 07:40:43;;;;;;;4.60;1.50;;;;;;;;;;5070408;28;20033;-73
2023/08/10 07:43:11;;;;;;;5.53;1.30;;;;;;;;;;5065608;28;20037;-74
2023/08/10 07:45:37;;;;;;;3.55;1.35;;;;;;;;;;5069926;28;20029;-74
2023/08/10 07:48:06;;;;;;;4.65;1.42;;;;;;;;;;5058936;28;20108;-74
2023/08/10 07:50:32;;;;;;;7.75;1.65;;;;;;;;;;5070529;28;20045;-74
2023/08/10 07:53:03;;;;;;;4.75;1.58;;;;;;;;;;5070152;28;20039;-74
2023/08/10 07:55:29;;;;;;;2.72;1.23;;;;;;;;;;5070774;28;20043;-74
2023/08/10 07:57:57;;;;;;;5.07;1.60;;;;;;;;;;5069949;28;20017;-74
2023/08/10 08:00:23;;;;;;;3.83;1.20;;;;;;;;;;5070912;28;20045;-74
2023/08/10 08:02:49;;;;;;;5.53;1.10;;;;;;;;;;5070823;28;20097;-74
2023/08/10 08:05:18;;;;;;;7.15;0.93;;;;;;;;;;5070688;28;20051;-74
2023/08/10 08:07:44;;;;;;;6.65;1.33;;;;;;;;;;5070488;28;20009;-74
2023/08/10 08:10:10;;;;;;;2.85;1.17;;;;;;;;;;5071457;28;20039;-74
2023/08/10 08:12:36;;;;;;;5.32;1.02;;;;;;;;;;5071215;28;20021;-73
2023/08/10 08:15:03;;;;;;;3.72;1.30;;;;;;;;;;5061791;28;20017;-74
2023/08/10 08:17:49;;;;;;;5.65;1.23;;;;;;;;;;5071220;28;20044;-74
2023/08/10 08:20:15;;;;;;;2.30;1.10;;;;;;;;;;5064405;28;21073;-74
2023/08/10 08:22:43;;;;;;;4.63;1.00;;;;;;;;;;5070888;28;20076;-73
2023/08/10 08:25:09;;;;;;;5.72;1.35;;;;;;;;;;5060491;28;20052;-74
2023/08/10 08:27:35;;;;;;;8.45;1.27;;;;;;;;;;5069626;28;20052;-74
2023/08/10 08:30:03;;;;;;;2.67;0.82;;;;;;;;;;5069796;28;20024;-73
2023/08/10 08:32:31;;;;;;;5.68;1.17;;;;;;;;;;5070241;28;20025;-74
2023/08/10 08:34:57;;;;;;;7.43;0.98;;;;;;;;;;5061224;28;20049;-74
2023/08/10 08:37:25;;;;;;;4.00;0.82;;;;;;;;;;5070554;28;20025;-74
2023/08/10 08:39:54;;;;;;;4.13;1.33;;;;;;;;;;5069792;28;20024;-74
2023/08/10 08:42:20;;;;;;;4.80;1.45;;;;;;;;;;5069870;28;20029;-74
2023/08/10 08:44:46;;;;;;;4.15;1.30;;;;;;;;;;5070664;28;20033;-74
2023/08/10 08:47:12;;;;;;;3.25;0.80;;;;;;;;;;5066735;28;20017;-74
2023/08/10 08:49:40;;;;;;;2.15;0.90;;;;;;;;;;5068379;28;20081;-74
2023/08/10 08:52:09;;;;;;;4.25;1.15;;;;;;;;;;5072077;28;20037;-74
2023/08/10 08:54:37;;;;;;;9.25;1.90;;;;;;;;;;5071110;28;20021;-74
2023/08/10 08:57:05;;;;;;;3.88;1.50;;;;;;;;;;5070881;28;20033;-74
2023/08/10 08:59:31;;;;;;;4.50;1.05;;;;;;;;;;5070203;28;20037;-74
2023/08/10 09:01:58;;;;;;;3.75;1.77;;;;;;;;;;5072405;28;20112;-74
2023/08/10 09:04:24;;;;;;;7.85;1.85;;;;;;;;;;5066984;28;20029;-74
2023/08/10 09:06:50;;;;;;;4.95;1.52;;;;;;;;;;5072072;28;20017;-74
2023/08/10 09:09:17;;;;;;;7.15;2.58;;;;;;;;;;5070439;28;20013;-74
2023/08/10 09:11:45;;;;;;;4.68;1.73;;;;;;;;;;5070769;28;20037;-74
2023/08/10 09:14:12;;;;;;;5.47;1.48;;;;;;;;;;5071906;28;20009;-74
2023/08/10 09:16:38;;;;;;;4.15;1.70;;;;;;;;;;5070612;28;20013;-74
2023/08/10 09:19:04;;;;;;;6.25;1.90;;;;;;;;;;5070582;28;20063;-74
2023/08/10 09:21:32;;;;;;;7.05;2.63;;;;;;;;;;5069855;28;20040;-74
2023/08/10 09:23:58;;;;;;;5.38;2.42;;;;;;;;;;5071147;28;20077;-74
2023/08/10 09:26:25;;;;;;;3.55;2.00;;;;;;;;;;5070877;28;20017;-74
2023/08/10 09:28:51;;;;;;;12.73;2.70;;;;;;;;;;5067864;28;20064;-74
2023/08/10 09:31:25;;;;;;;6.78;2.28;;;;;;;;;;5069487;28;20052;-76
2023/08/10 09:33:55;;;;;;;7.78;3.03;;;;;;;;;;5069147;28;20025;-75
2023/08/10 09:36:25;;;;;;;10.98;2.97;;;;;;;;;;5054758;28;20179;-76
2023/08/10 09:38:52;;;;;;;6.53;3.08;;;;;;;;;;5066215;28;20025;-79
2023/08/10 09:41:22;;;;;;;4.07;2.33;;;;;;;;;;5055310;28;20036;-78
2023/08/10 09:43:48;;;;;;;6.97;1.67;;;;;;;;;;5059730;28;20013;-74
2023/08/10 09:46:15;;;;;;;19.45;2.60;;;;;;;;;;5062191;28;20033;-78
2023/08/10 09:48:42;;;;;;;4.35;2.08;;;;;;;;;;5056473;28;20096;-77
2023/08/10 09:51:10;;;;;;;5.18;1.42;;;;;;;;;;5050501;28;20361;-78
2023/08/10 09:53:36;;;;;;;2.55;1.10;;;;;;;;;;5039644;28;20430;-77
2023/08/10 09:56:07;;;;;;;2.67;1.10;;;;;;;;;;5062634;28;20036;-75
2023/08/10 09:58:33;;;;;;;7.03;1.40;;;;;;;;;;5068861;28;20360;-76
2023/08/10 10:00:59;;;;;;;1.20;0.55;;;;;;;;;;5057267;28;20033;-82
2023/08/10 10:03:33;;;;;;;5.00;1.30;;;;;;;;;;5050948;28;20086;-81
2023/08/10 10:06:02;;;;;;;5.38;0.77;;;;;;;;;;5059101;28;20029;-77
2023/08/10 10:08:29;;;;;;;2.60;0.93;;;;;;;;;;5047362;28;20021;-82
2023/08/10 10:10:57;;;;;;;2.72;1.10;;;;;;;;;;5048001;28;20108;-80
2023/08/10 10:13:24;;;;;;;3.20;1.20;;;;;;;;;;5047047;28;20044;-85
2023/08/10 10:15:50;;;;;;;3.45;1.48;;;;;;;;;;5037128;28;20134;-82
2023/08/10 10:18:19;;;;;;;3.47;2.03;;;;;;;;;;5051309;28;20043;-77
2023/08/10 10:20:45;;;;;;;6.60;2.33;;;;;;;;;;5051858;28;20048;-80
2023/08/10 10:23:15;;;;;;;3.55;1.35;;;;;;;;;;5056460;28;20499;-82
2023/08/10 10:25:42;;;;;;;7.20;2.30;;;;;;;;;;5037196;28;20025;-81
2023/08/10 10:28:16;;;;;;;4.40;1.70;;;;;;;;;;5047291;28;20079;-83
2023/08/10 10:30:54;;;;;;;5.68;1.80;;;;;;;;;;5040558;28;21542;-84
2023/08/10 10:33:23;;;;;;;5.90;2.35;;;;;;;;;;5036466;28;20024;-81
2023/08/10 10:36:07;;;;;;;5.38;2.15;;;;;;;;;;5045783;28;20457;-83
2023/08/10 10:38:33;;;;;;;6.28;2.22;;;;;;;;;;5046727;28;20052;-83
2023/08/10 10:41:15;;;;;;;4.40;2.53;;;;;;;;;;5045481;28;20107;-84
2023/08/10 10:43:44;;;;;;;5.75;1.90;;;;;;;;;;5045888;28;20491;-82
2023/08/10 10:46:26;;;;;;;4.80;2.13;;;;;;;;;;5046641;28;20031;-84
2023/08/10 10:48:52;;;;;;;5.20;2.03;;;;;;;;;;5045981;28;20020;-81
2023/08/10 10:51:22;;;;;;;4.57;1.85;;;;;;;;;;5035235;28;20029;-81
2023/08/10 10:53:50;;;;;;;4.47;2.60;;;;;;;;;;5034069;28;20040;-79
2023/08/10 10:56:16;;;;;;;6.55;2.38;;;;;;;;;;5036009;28;20051;-81
2023/08/10 10:58:43;;;;;;;7.28;2.50;;;;;;;;;;5045841;28;20052;-84
2023/08/10 11:01:09;;;;;;;6.97;3.42;;;;;;;;;;5044486;28;20029;-82
2023/08/10 11:03:40;;;;;;;8.73;3.53;;;;;;;;;;5036154;28;20468;-80
2023/08/10 11:06:12;;;;;;;8.27;3.95;;;;;;;;;;5045346;28;20029;-82
2023/08/10 11:08:38;;;;;;;10.18;3.38;;;;;;;;;;5036341;28;20069;-86
2023/08/10 11:11:04;;;;;;;8.60;2.92;;;;;;;;;;5034178;28;20037;-83
2023/08/10 11:13:31;;;;;;;8.38;3.25;;;;;;;;;;5044534;28;20103;-80
2023/08/10 11:15:57;;;;;;;5.63;2.83;;;;;;;;;;5044567;28;20044;-81
2023/08/10 11:18:26;;;;;;;7.82;3.40;;;;;;;;;;5044767;28;20106;-81
2023/08/10 11:20:52;;;;;;;9.98;3.05;;;;;;;;;;5044683;28;20048;-81
2023/08/10 11:23:20;;;;;;;4.68;1.95;;;;;;;;;;5045446;28;20045;-81
2023/08/10 11:25:57;;;;;;;3.65;1.77;;;;;;;;;;5060861;28;20029;-81
2023/08/10 11:28:25;;;;;;;5.00;1.90;;;;;;;;;;5043599;28;20380;-83
2023/08/10 11:30:54;;;;;;;8.63;2.38;;;;;;;;;;5044246;28;20032;-80
2023/08/10 11:33:20;;;;;;;7.40;2.28;;;;;;;;;;5044641;28;20043;-82
2023/08/10 11:35:50;;;;;;;5.38;2.17;;;;;;;;;;5044739;28;20033;-81
2023/08/10 11:38:19;;;;;;;4.82;2.20;;;;;;;;;;5044189;28;20028;-79
2023/08/10 11:40:45;;;;;;;3.80;1.63;;;;;;;;;;5043306;28;20071;-81
2023/08/10 11:43:14;;;;;;;3.95;1.80;;;;;;;;;;5044756;28;20104;-83
2023/08/10 11:45:41;;;;;;;3.78;2.08;;;;;;;;;;5043563;28;20047;-82
2023/08/10 11:48:09;;;;;;;5.70;1.73;;;;;;;;;;5042577;28;20032;-82
2023/08/10 11:50:38;;;;;;;3.90;1.90;;;;;;;;;;5043646;28;20467;-83
2023/08/10 11:53:11;;;;;;;5.30;2.42;;;;;;;;;;5044520;28;20029;-84
2023/08/10 11:55:44;;;;;;;4.55;1.80;;;;;;;;;;5044568;28;20123;-82
2023/08/10 11:58:13;;;;;;;3.65;1.52;;;;;;;;;;5042960;28;20033;-81
2023/08/10 12:00:42;;;;;;;2.75;1.35;;;;;;;;;;5044148;28;20049;-86
2023/08/10 12:03:09;;;;;;;3.47;1.88;;;;;;;;;;5043199;28;20025;-82
2023/08/10 12:05:36;;;;;;;5.80;1.65;;;;;;;;;;5042370;28;20073;-82
2023/08/10 12:08:06;;;;;;;4.97;1.88;;;;;;;;;;5044000;28;20396;-82
2023/08/10 12:10:36;;;;;;;5.90;2.10;;;;;;;;;;5047927;28;20037;-82
2023/08/10 12:13:02;;;;;;;5.82;2.08;;;;;;;;;;5043973;28;20098;-81
2023/08/10 12:15:30;;;;;;;5.93;1.92;;;;;;;;;;5047473;28;20037;-80
2023/08/10 12:17:56;;;;;;;4.88;1.85;;;;;;;;;;5044165;28;20044;-79
2023/08/10 12:20:24;;;;;;;2.85;1.55;;;;;;;;;;5044124;28;20036;-83
2023/08/10 12:22:51;;;;;;;3.38;1.65;;;;;;;;;;5043668;28;20090;-81
2023/08/10 12:25:17;;;;;;;3.35;1.50;;;;;;;;;;5043950;28;20039;-80
2023/08/10 12:27:43;;;;;;;4.85;1.48;;;;;;;;;;5044868;28;20025;-83
2023/08/10 12:30:12;;;;;;;4.47;1.95;;;;;;;;;;5043808;28;20044;-81
2023/08/10 12:32:38;;;;;;;3.55;1.80;;;;;;;;;;5033143;28;20041;-83
2023/08/10 12:35:04;;;;;;;8.88;2.58;;;;;;;;;;5042323;28;20036;-81
2023/08/10 12:37:30;;;;;;;4.90;2.40;;;;;;;;;;5043852;28;20108;-82
2023/08/10 12:39:58;;;;;;;3.83;1.85;;;;;;;;;;5042063;28;20033;-85
2023/08/10 12:42:24;;;;;;;7.30;1.75;;;;;;;;;;5033422;28;20029;-80
2023/08/10 12:44:51;;;;;;;6.45;2.15;;;;;;;;;;5042089;28;20170;-84
2023/08/10 12:47:19;;;;;;;6.18;2.35;;;;;;;;;;5043274;28;20577;-83
2023/08/10 12:49:45;;;;;;;3.13;2.10;;;;;;;;;;5043360;28;20029;-83
2023/08/10 12:52:11;;;;;;;3.60;2.13;;;;;;;;;;5044106;28;20036;-83
2023/08/10 12:54:37;;;;;;;4.20;1.70;;;;;;;;;;5033452;28;20429;-79
2023/08/10 12:57:04;;;;;;;5.05;2.38;;;;;;;;;;5042252;28;20036;-83
2023/08/10 12:59:32;;;;;;;5.20;2.17;;;;;;;;;;5043009;28;20029;-84
2023/08/10 13:02:00;;;;;;;6.07;2.80;;;;;;;;;;5043447;28;20032;-80
2023/08/10 13:04:26;;;;;;;5.00;2.35;;;;;;;;;;5043574;28;20179;-84
2023/08/10 13:06:52;;;;;;;5.13;2.03;;;;;;;;;;5033676;28;20115;-82
2023/08/10 13:09:18;;;;;;;4.88;2.25;;;;;;;;;;5040241;28;20033;-85
2023/08/10 13:11:45;;;;;;;4.93;2.28;;;;;;;;;;5043136;28;20140;-83
2023/08/10 13:14:11;;;;;;;5.43;2.25;;;;;;;;;;5047116;28;20523;-84
2023/08/10 13:16:37;;;;;;;4.35;1.60;;;;;;;;;;5038394;28;20033;-83
2023/08/10 13:19:03;;;;;;;3.95;1.83;;;;;;;;;;5050515;28;20033;-83
2023/08/10 13:21:29;;;;;;;4.20;2.20;;;;;;;;;;5048498;28;20047;-79
2023/08/10 13:23:55;;;;;;;9.30;1.90;;;;;;;;;;5048175;28;20108;-80
2023/08/10 13:26:23;;;;;;;6.50;2.15;;;;;;;;;;5053739;28;20029;-82
2023/08/10 13:28:50;;;;;;;3.53;2.17;;;;;;;;;;5046392;28;20029;-84
2023/08/10 13:31:16;;;;;;;4.32;2.20;;;;;;;;;;5050955;28;20033;-82
2023/08/10 13:33:41;;;;;;;5.03;2.33;;;;;;;;;;5046968;28;20040;-78
2023/08/10 13:36:07;;;;;;;5.57;1.92;;;;;;;;;;5046912;28;20056;-84
2023/08/10 13:38:33;;;;;;;5.18;1.90;;;;;;;;;;5041675;28;20469;-82
2023/08/10 13:40:59;;;;;;;5.25;1.23;;;;;;;;;;5039835;28;20254;-82
2023/08/10 13:43:28;;;;;;;5.75;1.90;;;;;;;;;;5047219;28;20025;-81
2023/08/10 13:45:54;;;;;;;3.03;1.80;;;;;;;;;;5046848;28;20025;-81
2023/08/10 13:48:23;;;;;;;5.68;2.45;;;;;;;;;;5047167;28;20687;-80
2023/08/10 13:50:53;;;;;;;5.40;2.17;;;;;;;;;;5049364;28;20032;-78
2023/08/10 13:53:19;;;;;;;4.53;1.80;;;;;;;;;;5046685;28;20029;-83
2023/08/10 13:55:45;;;;;;;5.10;1.88;;;;;;;;;;5045359;28;20025;-80
2023/08/10 13:58:11;;;;;;;6.63;2.00;;;;;;;;;;5046066;28;20025;-81
2023/08/10 14:00:38;;;;;;;3.50;1.58;;;;;;;;;;5044109;28;20476;-78
2023/08/10 14:03:06;;;;;;;7.47;2.30;;;;;;;;;;5038165;28;20028;-82
2023/08/10 14:05:32;;;;;;;5.03;1.80;;;;;;;;;;5036547;28;21635;-82
2023/08/10 14:07:58;;;;;;;4.95;1.92;;;;;;;;;;5048134;28;20045;-78
2023/08/10 14:10:24;;;;;;;5.32;2.15;;;;;;;;;;5046136;28;20029;-82
2023/08/10 14:12:50;;;;;;;6.00;1.83;;;;;;;;;;5044613;28;21184;-84
2023/08/10 14:15:17;;;;;;;4.50;2.45;;;;;;;;;;5045662;28;20048;-81
2023/08/10 14:17:44;;;;;;;3.80;1.70;;;;;;;;;;5034507;28;20029;-81
2023/08/10 14:20:10;;;;;;;3.90;1.92;;;;;;;;;;5035442;28;20098;-80
2023/08/10 14:22:36;;;;;;;3.08;1.70;;;;;;;;;;5044319;28;20029;-82
2023/08/10 14:25:03;;;;;;;5.45;1.95;;;;;;;;;;5043538;28;20045;-81
2023/08/10 14:27:29;;;;;;;5.88;1.85;;;;;;;;;;5044271;28;20075;-79
2023/08/10 14:29:58;;;;;;;3.63;1.95;;;;;;;;;;5039815;28;20033;-81
2023/08/10 14:32:24;;;;;;;4.55;2.20;;;;;;;;;;5035002;28;20025;-83
2023/08/10 14:34:51;;;;;;;3.60;1.90;;;;;;;;;;5045092;28;20036;-80
2023/08/10 14:37:17;;;;;;;3.92;2.17;;;;;;;;;;5034166;28;20094;-82
2023/08/10 14:39:45;;;;;;;6.13;2.10;;;;;;;;;;5044191;28;20033;-82
2023/08/10 14:42:12;;;;;;;6.80;1.70;;;;;;;;;;5044547;28;20108;-80
2023/08/10 14:44:38;;;;;;;2.75;1.83;;;;;;;;;;5045306;28;20721;-83